sensor_id;sensor_type;location;lat;lon;timestamp;P1;durP1;ratioP1;P2;durP2;ratioP2
46415;SDS011;32620;51.704;7.822;2023-08-31T00:00:43;44.13;;;27.40;;
46415;SDS011;32620;51.704;7.822;2023-08-31T00:03:09;36.35;;;22.95;;
46415;SDS011;32620;51.704;7.822;2023-08-31T00:05:37;38.22;;;23.83;;
46415;SDS011;32620;51.704;7.822;2023-08-31T00:08:06;43.42;;;25.52;;
46415;SDS011;32620;51.704;7.822;2023-08-31T00:10:32;42.72;;;24.88;;
46415;SDS011;32620;51.704;7.822;2023-08-31T00:13:00;48.28;;;25.33;;
46415;SDS011;32620;51.704;7.822;2023-08-31T00:15:26;38.13;;;22.98;;
46415;SDS011;32620;51.704;7.822;2023-08-31T00:17:53;41.67;;;23.35;;
46415;SDS011;32620;51.704;7.822;2023-08-31T00:20:19;64.20;;;30.55;;
46415;SDS011;32620;51.704;7.822;2023-08-31T00:22:44;60.08;;;30.52;;
46415;SDS011;32620;51.704;7.822;2023-08-31T00:25:10;60.65;;;32.60;;
46415;SDS011;32620;51.704;7.822;2023-08-31T00:27:36;62.53;;;31.15;;
46415;SDS011;32620;51.704;7.822;2023-08-31T00:30:03;60.85;;;32.15;;
46415;SDS011;32620;51.704;7.822;2023-08-31T00:32:32;60.88;;;31.65;;
46415;SDS011;32620;51.704;7.822;2023-08-31T00:34:59;57.88;;;31.52;;
46415;SDS011;32620;51.704;7.822;2023-08-31T00:37:24;60.47;;;33.25;;
46415;SDS011;32620;51.704;7.822;2023-08-31T00:39:50;63.95;;;34.55;;
46415;SDS011;32620;51.704;7.822;2023-08-31T00:42:17;72.78;;;37.63;;
46415;SDS011;32620;51.704;7.822;2023-08-31T00:44:43;59.03;;;32.20;;
46415;SDS011;32620;51.704;7.822;2023-08-31T00:47:12;55.53;;;31.75;;
46415;SDS011;32620;51.704;7.822;2023-08-31T00:49:38;56.53;;;30.73;;
46415;SDS011;32620;51.704;7.822;2023-08-31T00:52:05;51.80;;;29.70;;
46415;SDS011;32620;51.704;7.822;2023-08-31T00:54:32;59.83;;;28.45;;
46415;SDS011;32620;51.704;7.822;2023-08-31T00:56:59;45.55;;;25.63;;
46415;SDS011;32620;51.704;7.822;2023-08-31T00:59:25;48.88;;;26.73;;
46415;SDS011;32620;51.704;7.822;2023-08-31T01:01:55;50.83;;;25.80;;
46415;SDS011;32620;51.704;7.822;2023-08-31T01:04:51;42.92;;;25.30;;
46415;SDS011;32620;51.704;7.822;2023-08-31T01:13:11;45.97;;;23.98;;
46415;SDS011;32620;51.704;7.822;2023-08-31T01:15:41;43.67;;;23.33;;
46415;SDS011;32620;51.704;7.822;2023-08-31T01:18:11;45.45;;;22.80;;
46415;SDS011;32620;51.704;7.822;2023-08-31T01:20:43;43.00;;;21.92;;
46415;SDS011;32620;51.704;7.822;2023-08-31T01:23:17;40.20;;;21.77;;
46415;SDS011;32620;51.704;7.822;2023-08-31T01:25:45;38.03;;;21.52;;
46415;SDS011;32620;51.704;7.822;2023-08-31T01:28:13;38.92;;;21.30;;
46415;SDS011;32620;51.704;7.822;2023-08-31T01:30:38;34.67;;;21.02;;
46415;SDS011;32620;51.704;7.822;2023-08-31T01:33:04;36.85;;;18.90;;
46415;SDS011;32620;51.704;7.822;2023-08-31T01:35:33;33.40;;;19.35;;
46415;SDS011;32620;51.704;7.822;2023-08-31T01:38:06;40.88;;;20.48;;
46415;SDS011;32620;51.704;7.822;2023-08-31T01:40:35;36.70;;;18.52;;
46415;SDS011;32620;51.704;7.822;2023-08-31T01:43:09;32.95;;;18.38;;
46415;SDS011;32620;51.704;7.822;2023-08-31T01:45:36;29.20;;;17.60;;
46415;SDS011;32620;51.704;7.822;2023-08-31T01:48:03;34.08;;;19.30;;
46415;SDS011;32620;51.704;7.822;2023-08-31T01:50:29;34.15;;;18.20;;
46415;SDS011;32620;51.704;7.822;2023-08-31T01:52:55;34.10;;;18.30;;
46415;SDS011;32620;51.704;7.822;2023-08-31T01:55:22;29.75;;;17.33;;
46415;SDS011;32620;51.704;7.822;2023-08-31T01:57:48;30.73;;;17.30;;
46415;SDS011;32620;51.704;7.822;2023-08-31T02:00:14;41.05;;;17.55;;
46415;SDS011;32620;51.704;7.822;2023-08-31T02:02:42;30.73;;;17.00;;
46415;SDS011;32620;51.704;7.822;2023-08-31T02:05:07;34.25;;;16.80;;
46415;SDS011;32620;51.704;7.822;2023-08-31T02:07:33;28.77;;;16.20;;
46415;SDS011;32620;51.704;7.822;2023-08-31T02:09:59;31.52;;;16.30;;
46415;SDS011;32620;51.704;7.822;2023-08-31T02:12:25;25.30;;;15.00;;
46415;SDS011;32620;51.704;7.822;2023-08-31T02:14:50;33.97;;;15.55;;
46415;SDS011;32620;51.704;7.822;2023-08-31T02:17:16;32.75;;;15.10;;
46415;SDS011;32620;51.704;7.822;2023-08-31T02:19:42;32.58;;;16.02;;
46415;SDS011;32620;51.704;7.822;2023-08-31T02:22:08;27.45;;;14.48;;
46415;SDS011;32620;51.704;7.822;2023-08-31T02:24:34;26.70;;;14.07;;
46415;SDS011;32620;51.704;7.822;2023-08-31T02:26:59;25.30;;;14.43;;
46415;SDS011;32620;51.704;7.822;2023-08-31T02:29:25;29.10;;;14.52;;
46415;SDS011;32620;51.704;7.822;2023-08-31T02:31:50;29.45;;;14.95;;
46415;SDS011;32620;51.704;7.822;2023-08-31T02:34:16;22.40;;;14.20;;
46415;SDS011;32620;51.704;7.822;2023-08-31T02:36:42;33.38;;;14.60;;
46415;SDS011;32620;51.704;7.822;2023-08-31T02:39:07;27.70;;;14.18;;
46415;SDS011;32620;51.704;7.822;2023-08-31T02:41:33;24.92;;;13.93;;
46415;SDS011;32620;51.704;7.822;2023-08-31T02:43:58;25.95;;;13.65;;
46415;SDS011;32620;51.704;7.822;2023-08-31T02:46:24;25.40;;;14.02;;
46415;SDS011;32620;51.704;7.822;2023-08-31T02:48:50;30.27;;;14.63;;
46415;SDS011;32620;51.704;7.822;2023-08-31T02:51:15;24.05;;;13.27;;
46415;SDS011;32620;51.704;7.822;2023-08-31T02:53:41;30.33;;;13.52;;
46415;SDS011;32620;51.704;7.822;2023-08-31T02:56:07;27.52;;;13.38;;
46415;SDS011;32620;51.704;7.822;2023-08-31T02:58:33;28.73;;;13.07;;
46415;SDS011;32620;51.704;7.822;2023-08-31T03:01:07;25.98;;;13.43;;
46415;SDS011;32620;51.704;7.822;2023-08-31T03:03:36;28.00;;;13.38;;
46415;SDS011;32620;51.704;7.822;2023-08-31T03:06:02;20.15;;;12.55;;
46415;SDS011;32620;51.704;7.822;2023-08-31T03:08:28;25.00;;;12.77;;
46415;SDS011;32620;51.704;7.822;2023-08-31T03:10:53;26.48;;;13.25;;
46415;SDS011;32620;51.704;7.822;2023-08-31T03:13:21;23.33;;;14.27;;
46415;SDS011;32620;51.704;7.822;2023-08-31T03:15:47;22.05;;;13.30;;
46415;SDS011;32620;51.704;7.822;2023-08-31T03:18:13;29.42;;;13.43;;
46415;SDS011;32620;51.704;7.822;2023-08-31T03:20:38;28.63;;;14.63;;
46415;SDS011;32620;51.704;7.822;2023-08-31T03:23:04;23.77;;;13.63;;
46415;SDS011;32620;51.704;7.822;2023-08-31T03:25:30;23.75;;;14.80;;
46415;SDS011;32620;51.704;7.822;2023-08-31T03:27:55;25.40;;;14.10;;
46415;SDS011;32620;51.704;7.822;2023-08-31T03:30:21;23.38;;;14.65;;
46415;SDS011;32620;51.704;7.822;2023-08-31T03:32:47;21.48;;;14.13;;
46415;SDS011;32620;51.704;7.822;2023-08-31T03:35:12;24.20;;;13.57;;
46415;SDS011;32620;51.704;7.822;2023-08-31T03:37:39;22.90;;;14.23;;
46415;SDS011;32620;51.704;7.822;2023-08-31T03:40:04;25.38;;;14.95;;
46415;SDS011;32620;51.704;7.822;2023-08-31T03:42:31;32.08;;;15.32;;
46415;SDS011;32620;51.704;7.822;2023-08-31T03:44:58;24.63;;;15.10;;
46415;SDS011;32620;51.704;7.822;2023-08-31T03:47:24;24.20;;;15.15;;
46415;SDS011;32620;51.704;7.822;2023-08-31T03:49:50;26.02;;;15.70;;
46415;SDS011;32620;51.704;7.822;2023-08-31T03:52:15;29.35;;;15.00;;
46415;SDS011;32620;51.704;7.822;2023-08-31T03:54:41;27.40;;;15.48;;
46415;SDS011;32620;51.704;7.822;2023-08-31T03:57:06;24.23;;;15.45;;
46415;SDS011;32620;51.704;7.822;2023-08-31T03:59:32;26.40;;;16.45;;
46415;SDS011;32620;51.704;7.822;2023-08-31T04:01:58;28.75;;;16.58;;
46415;SDS011;32620;51.704;7.822;2023-08-31T04:04:24;35.22;;;17.85;;
46415;SDS011;32620;51.704;7.822;2023-08-31T04:06:50;33.00;;;18.60;;
46415;SDS011;32620;51.704;7.822;2023-08-31T04:09:15;29.55;;;17.45;;
46415;SDS011;32620;51.704;7.822;2023-08-31T04:11:42;34.67;;;20.38;;
46415;SDS011;32620;51.704;7.822;2023-08-31T04:14:07;33.47;;;19.52;;
46415;SDS011;32620;51.704;7.822;2023-08-31T04:16:33;37.38;;;19.70;;
46415;SDS011;32620;51.704;7.822;2023-08-31T04:18:59;38.70;;;20.77;;
46415;SDS011;32620;51.704;7.822;2023-08-31T04:21:24;34.92;;;20.35;;
46415;SDS011;32620;51.704;7.822;2023-08-31T04:23:50;38.55;;;22.27;;
46415;SDS011;32620;51.704;7.822;2023-08-31T04:26:15;41.25;;;22.98;;
46415;SDS011;32620;51.704;7.822;2023-08-31T04:28:42;39.85;;;21.67;;
46415;SDS011;32620;51.704;7.822;2023-08-31T04:31:09;49.05;;;23.38;;
46415;SDS011;32620;51.704;7.822;2023-08-31T04:33:35;36.78;;;22.40;;
46415;SDS011;32620;51.704;7.822;2023-08-31T04:36:02;45.80;;;23.80;;
46415;SDS011;32620;51.704;7.822;2023-08-31T04:38:29;35.30;;;21.90;;
46415;SDS011;32620;51.704;7.822;2023-08-31T04:40:58;43.05;;;21.55;;
46415;SDS011;32620;51.704;7.822;2023-08-31T04:43:24;37.47;;;21.77;;
46415;SDS011;32620;51.704;7.822;2023-08-31T04:45:51;38.97;;;22.23;;
46415;SDS011;32620;51.704;7.822;2023-08-31T04:48:17;48.08;;;23.77;;
46415;SDS011;32620;51.704;7.822;2023-08-31T04:50:43;44.08;;;23.63;;
46415;SDS011;32620;51.704;7.822;2023-08-31T04:53:08;44.88;;;23.55;;
46415;SDS011;32620;51.704;7.822;2023-08-31T04:55:34;39.05;;;22.10;;
46415;SDS011;32620;51.704;7.822;2023-08-31T04:57:59;39.67;;;23.63;;
46415;SDS011;32620;51.704;7.822;2023-08-31T05:00:26;46.05;;;23.58;;
46415;SDS011;32620;51.704;7.822;2023-08-31T05:02:51;41.03;;;22.35;;
46415;SDS011;32620;51.704;7.822;2023-08-31T05:05:17;41.50;;;22.60;;
46415;SDS011;32620;51.704;7.822;2023-08-31T05:07:44;37.78;;;20.60;;
46415;SDS011;32620;51.704;7.822;2023-08-31T05:10:09;45.42;;;21.98;;
46415;SDS011;32620;51.704;7.822;2023-08-31T05:12:35;39.15;;;21.55;;
46415;SDS011;32620;51.704;7.822;2023-08-31T05:15:01;42.47;;;22.05;;
46415;SDS011;32620;51.704;7.822;2023-08-31T05:17:27;39.53;;;21.05;;
46415;SDS011;32620;51.704;7.822;2023-08-31T05:19:53;36.03;;;21.63;;
46415;SDS011;32620;51.704;7.822;2023-08-31T05:22:19;35.95;;;21.15;;
46415;SDS011;32620;51.704;7.822;2023-08-31T05:24:44;40.67;;;22.23;;
46415;SDS011;32620;51.704;7.822;2023-08-31T05:27:10;40.28;;;22.08;;
46415;SDS011;32620;51.704;7.822;2023-08-31T05:29:36;34.58;;;21.48;;
46415;SDS011;32620;51.704;7.822;2023-08-31T05:32:01;45.10;;;22.33;;
46415;SDS011;32620;51.704;7.822;2023-08-31T05:34:27;41.00;;;21.88;;
46415;SDS011;32620;51.704;7.822;2023-08-31T05:36:53;40.47;;;22.38;;
46415;SDS011;32620;51.704;7.822;2023-08-31T05:39:19;38.67;;;21.13;;
46415;SDS011;32620;51.704;7.822;2023-08-31T05:41:44;39.28;;;22.02;;
46415;SDS011;32620;51.704;7.822;2023-08-31T05:44:10;37.47;;;23.10;;
46415;SDS011;32620;51.704;7.822;2023-08-31T05:46:36;37.20;;;22.75;;
46415;SDS011;32620;51.704;7.822;2023-08-31T05:49:03;35.78;;;23.25;;
46415;SDS011;32620;51.704;7.822;2023-08-31T05:51:29;40.22;;;25.25;;
46415;SDS011;32620;51.704;7.822;2023-08-31T05:53:54;41.90;;;24.85;;
46415;SDS011;32620;51.704;7.822;2023-08-31T05:56:20;39.78;;;26.13;;
46415;SDS011;32620;51.704;7.822;2023-08-31T05:58:46;41.55;;;26.23;;
46415;SDS011;32620;51.704;7.822;2023-08-31T06:01:12;41.42;;;26.80;;
46415;SDS011;32620;51.704;7.822;2023-08-31T06:03:38;37.03;;;25.33;;
46415;SDS011;32620;51.704;7.822;2023-08-31T06:06:03;37.38;;;25.95;;
46415;SDS011;32620;51.704;7.822;2023-08-31T06:08:29;37.42;;;25.80;;
46415;SDS011;32620;51.704;7.822;2023-08-31T06:10:56;33.67;;;24.17;;
46415;SDS011;32620;51.704;7.822;2023-08-31T06:13:21;29.08;;;21.67;;
46415;SDS011;32620;51.704;7.822;2023-08-31T06:15:47;26.30;;;19.70;;
46415;SDS011;32620;51.704;7.822;2023-08-31T06:18:13;25.55;;;19.48;;
46415;SDS011;32620;51.704;7.822;2023-08-31T06:20:38;21.27;;;17.23;;
46415;SDS011;32620;51.704;7.822;2023-08-31T06:23:04;21.70;;;17.38;;
46415;SDS011;32620;51.704;7.822;2023-08-31T06:25:30;21.33;;;17.50;;
46415;SDS011;32620;51.704;7.822;2023-08-31T06:27:56;21.90;;;17.23;;
46415;SDS011;32620;51.704;7.822;2023-08-31T06:30:22;22.02;;;17.23;;
46415;SDS011;32620;51.704;7.822;2023-08-31T06:32:48;26.80;;;18.25;;
46415;SDS011;32620;51.704;7.822;2023-08-31T06:35:15;27.35;;;18.25;;
46415;SDS011;32620;51.704;7.822;2023-08-31T06:37:41;27.63;;;20.48;;
46415;SDS011;32620;51.704;7.822;2023-08-31T06:40:07;29.15;;;19.48;;
46415;SDS011;32620;51.704;7.822;2023-08-31T06:42:35;27.38;;;19.67;;
46415;SDS011;32620;51.704;7.822;2023-08-31T06:45:03;22.98;;;17.75;;
46415;SDS011;32620;51.704;7.822;2023-08-31T06:47:30;27.42;;;18.08;;
46415;SDS011;32620;51.704;7.822;2023-08-31T06:49:56;23.45;;;17.02;;
46415;SDS011;32620;51.704;7.822;2023-08-31T06:52:23;24.13;;;17.77;;
46415;SDS011;32620;51.704;7.822;2023-08-31T06:54:49;27.50;;;18.25;;
46415;SDS011;32620;51.704;7.822;2023-08-31T06:57:15;24.38;;;17.30;;
46415;SDS011;32620;51.704;7.822;2023-08-31T06:59:40;23.17;;;17.77;;
46415;SDS011;32620;51.704;7.822;2023-08-31T07:02:06;26.67;;;19.10;;
46415;SDS011;32620;51.704;7.822;2023-08-31T07:04:32;29.63;;;19.50;;
46415;SDS011;32620;51.704;7.822;2023-08-31T07:06:57;27.90;;;20.15;;
46415;SDS011;32620;51.704;7.822;2023-08-31T07:09:23;25.88;;;19.80;;
46415;SDS011;32620;51.704;7.822;2023-08-31T07:11:48;27.73;;;19.67;;
46415;SDS011;32620;51.704;7.822;2023-08-31T07:14:14;29.02;;;21.10;;
46415;SDS011;32620;51.704;7.822;2023-08-31T07:16:40;35.58;;;22.33;;
46415;SDS011;32620;51.704;7.822;2023-08-31T07:19:05;36.88;;;23.25;;
46415;SDS011;32620;51.704;7.822;2023-08-31T07:21:31;34.20;;;22.50;;
46415;SDS011;32620;51.704;7.822;2023-08-31T07:23:56;31.40;;;22.48;;
46415;SDS011;32620;51.704;7.822;2023-08-31T07:26:22;35.10;;;23.30;;
46415;SDS011;32620;51.704;7.822;2023-08-31T07:28:48;37.90;;;22.52;;
46415;SDS011;32620;51.704;7.822;2023-08-31T07:31:13;32.47;;;22.05;;
46415;SDS011;32620;51.704;7.822;2023-08-31T07:33:40;28.67;;;19.77;;
46415;SDS011;32620;51.704;7.822;2023-08-31T07:36:06;24.00;;;16.23;;
46415;SDS011;32620;51.704;7.822;2023-08-31T07:38:31;19.92;;;14.55;;
46415;SDS011;32620;51.704;7.822;2023-08-31T07:40:58;20.00;;;13.60;;
46415;SDS011;32620;51.704;7.822;2023-08-31T07:43:25;14.93;;;12.18;;
46415;SDS011;32620;51.704;7.822;2023-08-31T07:45:52;15.90;;;12.02;;
46415;SDS011;32620;51.704;7.822;2023-08-31T07:48:18;12.82;;;11.20;;
46415;SDS011;32620;51.704;7.822;2023-08-31T07:50:44;13.18;;;10.02;;
46415;SDS011;32620;51.704;7.822;2023-08-31T07:53:10;13.18;;;10.23;;
46415;SDS011;32620;51.704;7.822;2023-08-31T07:55:36;13.82;;;9.68;;
46415;SDS011;32620;51.704;7.822;2023-08-31T07:58:02;12.77;;;9.13;;
46415;SDS011;32620;51.704;7.822;2023-08-31T08:00:28;15.45;;;9.07;;
46415;SDS011;32620;51.704;7.822;2023-08-31T08:02:54;13.43;;;8.45;;
46415;SDS011;32620;51.704;7.822;2023-08-31T08:05:19;12.65;;;8.23;;
46415;SDS011;32620;51.704;7.822;2023-08-31T08:07:45;12.13;;;7.55;;
46415;SDS011;32620;51.704;7.822;2023-08-31T08:10:11;10.48;;;7.70;;
46415;SDS011;32620;51.704;7.822;2023-08-31T08:12:37;11.90;;;7.65;;
46415;SDS011;32620;51.704;7.822;2023-08-31T08:15:05;8.20;;;7.22;;
46415;SDS011;32620;51.704;7.822;2023-08-31T08:17:35;14.95;;;7.30;;
46415;SDS011;32620;51.704;7.822;2023-08-31T08:20:01;10.52;;;6.88;;
46415;SDS011;32620;51.704;7.822;2023-08-31T08:22:27;10.23;;;7.30;;
46415;SDS011;32620;51.704;7.822;2023-08-31T08:24:53;13.60;;;8.02;;
46415;SDS011;32620;51.704;7.822;2023-08-31T08:27:19;12.25;;;7.47;;
46415;SDS011;32620;51.704;7.822;2023-08-31T08:29:45;11.07;;;7.38;;
46415;SDS011;32620;51.704;7.822;2023-08-31T08:32:11;13.18;;;7.53;;
46415;SDS011;32620;51.704;7.822;2023-08-31T08:34:37;11.50;;;6.82;;
46415;SDS011;32620;51.704;7.822;2023-08-31T08:37:03;9.65;;;5.72;;
46415;SDS011;32620;51.704;7.822;2023-08-31T08:39:29;7.78;;;5.57;;
46415;SDS011;32620;51.704;7.822;2023-08-31T08:41:56;14.23;;;6.30;;
46415;SDS011;32620;51.704;7.822;2023-08-31T08:44:24;12.40;;;5.90;;
46415;SDS011;32620;51.704;7.822;2023-08-31T08:46:51;12.10;;;5.90;;
46415;SDS011;32620;51.704;7.822;2023-08-31T08:49:18;9.70;;;5.53;;
46415;SDS011;32620;51.704;7.822;2023-08-31T08:51:44;8.00;;;5.40;;
46415;SDS011;32620;51.704;7.822;2023-08-31T08:54:12;12.50;;;6.05;;
46415;SDS011;32620;51.704;7.822;2023-08-31T08:56:38;10.70;;;6.15;;
46415;SDS011;32620;51.704;7.822;2023-08-31T08:59:04;10.95;;;6.00;;
46415;SDS011;32620;51.704;7.822;2023-08-31T09:01:30;11.80;;;5.40;;
46415;SDS011;32620;51.704;7.822;2023-08-31T09:03:58;8.88;;;4.88;;
46415;SDS011;32620;51.704;7.822;2023-08-31T09:06:23;13.75;;;7.47;;
46415;SDS011;32620;51.704;7.822;2023-08-31T09:08:56;13.05;;;6.78;;
46415;SDS011;32620;51.704;7.822;2023-08-31T09:11:22;9.30;;;5.43;;
46415;SDS011;32620;51.704;7.822;2023-08-31T09:13:49;9.35;;;4.47;;
46415;SDS011;32620;51.704;7.822;2023-08-31T09:16:30;8.30;;;3.88;;
46415;SDS011;32620;51.704;7.822;2023-08-31T09:18:56;9.82;;;4.15;;
46415;SDS011;32620;51.704;7.822;2023-08-31T09:21:23;10.60;;;4.30;;
46415;SDS011;32620;51.704;7.822;2023-08-31T09:24:00;9.05;;;4.18;;
46415;SDS011;32620;51.704;7.822;2023-08-31T09:26:26;9.10;;;4.20;;
46415;SDS011;32620;51.704;7.822;2023-08-31T09:28:51;8.82;;;3.75;;
46415;SDS011;32620;51.704;7.822;2023-08-31T09:31:17;8.43;;;3.90;;
46415;SDS011;32620;51.704;7.822;2023-08-31T09:33:51;11.27;;;4.07;;
46415;SDS011;32620;51.704;7.822;2023-08-31T09:36:17;7.32;;;4.28;;
46415;SDS011;32620;51.704;7.822;2023-08-31T09:38:44;9.27;;;4.53;;
46415;SDS011;32620;51.704;7.822;2023-08-31T09:41:10;9.77;;;4.65;;
46415;SDS011;32620;51.704;7.822;2023-08-31T09:43:36;7.43;;;4.22;;
46415;SDS011;32620;51.704;7.822;2023-08-31T09:46:02;13.50;;;4.38;;
46415;SDS011;32620;51.704;7.822;2023-08-31T09:48:30;9.55;;;4.85;;
46415;SDS011;32620;51.704;7.822;2023-08-31T09:50:56;9.30;;;4.22;;
46415;SDS011;32620;51.704;7.822;2023-08-31T09:53:24;7.72;;;4.90;;
46415;SDS011;32620;51.704;7.822;2023-08-31T09:55:50;5.70;;;4.47;;
46415;SDS011;32620;51.704;7.822;2023-08-31T09:58:17;9.15;;;5.78;;
46415;SDS011;32620;51.704;7.822;2023-08-31T10:00:45;6.80;;;4.30;;
46415;SDS011;32620;51.704;7.822;2023-08-31T10:03:11;9.13;;;4.53;;
46415;SDS011;32620;51.704;7.822;2023-08-31T10:05:40;5.90;;;3.85;;
46415;SDS011;32620;51.704;7.822;2023-08-31T10:08:08;6.53;;;3.63;;
46415;SDS011;32620;51.704;7.822;2023-08-31T10:10:33;6.65;;;3.65;;
46415;SDS011;32620;51.704;7.822;2023-08-31T10:13:00;6.75;;;3.13;;
46415;SDS011;32620;51.704;7.822;2023-08-31T10:15:30;9.43;;;3.33;;
46415;SDS011;32620;51.704;7.822;2023-08-31T10:17:59;5.82;;;3.03;;
46415;SDS011;32620;51.704;7.822;2023-08-31T10:20:26;5.95;;;3.00;;
46415;SDS011;32620;51.704;7.822;2023-08-31T10:22:56;6.63;;;3.42;;
46415;SDS011;32620;51.704;7.822;2023-08-31T10:25:23;4.75;;;2.42;;
46415;SDS011;32620;51.704;7.822;2023-08-31T10:27:49;6.57;;;3.13;;
46415;SDS011;32620;51.704;7.822;2023-08-31T10:33:23;4.82;;;2.70;;
46415;SDS011;32620;51.704;7.822;2023-08-31T10:35:51;7.65;;;2.90;;
46415;SDS011;32620;51.704;7.822;2023-08-31T10:43:47;3.40;;;1.85;;
46415;SDS011;32620;51.704;7.822;2023-08-31T10:46:47;3.67;;;1.50;;
46415;SDS011;32620;51.704;7.822;2023-08-31T10:51:49;3.63;;;1.58;;
46415;SDS011;32620;51.704;7.822;2023-08-31T10:54:30;3.38;;;1.33;;
46415;SDS011;32620;51.704;7.822;2023-08-31T10:59:53;2.80;;;1.13;;
46415;SDS011;32620;51.704;7.822;2023-08-31T11:02:35;3.03;;;2.10;;
46415;SDS011;32620;51.704;7.822;2023-08-31T11:07:40;2.80;;;1.70;;
46415;SDS011;32620;51.704;7.822;2023-08-31T11:10:08;6.00;;;2.05;;
46415;SDS011;32620;51.704;7.822;2023-08-31T11:12:37;6.40;;;2.80;;
46415;SDS011;32620;51.704;7.822;2023-08-31T11:15:04;4.82;;;2.08;;
46415;SDS011;32620;51.704;7.822;2023-08-31T11:17:30;5.78;;;2.50;;
46415;SDS011;32620;51.704;7.822;2023-08-31T11:19:58;4.50;;;2.63;;
46415;SDS011;32620;51.704;7.822;2023-08-31T11:22:24;5.97;;;2.55;;
46415;SDS011;32620;51.704;7.822;2023-08-31T11:24:50;2.10;;;1.80;;
46415;SDS011;32620;51.704;7.822;2023-08-31T11:27:18;7.32;;;2.45;;
46415;SDS011;32620;51.704;7.822;2023-08-31T11:29:45;3.08;;;2.22;;
46415;SDS011;32620;51.704;7.822;2023-08-31T11:32:11;3.35;;;2.00;;
46415;SDS011;32620;51.704;7.822;2023-08-31T11:34:44;5.75;;;2.53;;
46415;SDS011;32620;51.704;7.822;2023-08-31T11:37:11;4.05;;;2.22;;
46415;SDS011;32620;51.704;7.822;2023-08-31T11:39:41;4.22;;;2.53;;
46415;SDS011;32620;51.704;7.822;2023-08-31T11:42:07;5.03;;;2.40;;
46415;SDS011;32620;51.704;7.822;2023-08-31T11:44:33;5.60;;;2.50;;
46415;SDS011;32620;51.704;7.822;2023-08-31T11:46:59;4.85;;;2.60;;
46415;SDS011;32620;51.704;7.822;2023-08-31T11:49:26;6.40;;;2.78;;
46415;SDS011;32620;51.704;7.822;2023-08-31T11:51:53;2.88;;;2.05;;
46415;SDS011;32620;51.704;7.822;2023-08-31T11:54:19;3.85;;;2.33;;
46415;SDS011;32620;51.704;7.822;2023-08-31T11:56:46;2.88;;;2.28;;
46415;SDS011;32620;51.704;7.822;2023-08-31T11:59:17;3.30;;;2.05;;
46415;SDS011;32620;51.704;7.822;2023-08-31T12:01:45;6.15;;;2.40;;
46415;SDS011;32620;51.704;7.822;2023-08-31T12:04:13;4.45;;;2.15;;
46415;SDS011;32620;51.704;7.822;2023-08-31T12:06:40;7.10;;;2.35;;
46415;SDS011;32620;51.704;7.822;2023-08-31T12:09:07;2.78;;;2.30;;
46415;SDS011;32620;51.704;7.822;2023-08-31T12:11:33;6.05;;;2.63;;
46415;SDS011;32620;51.704;7.822;2023-08-31T12:13:59;6.32;;;2.80;;
46415;SDS011;32620;51.704;7.822;2023-08-31T12:16:31;5.45;;;3.17;;
46415;SDS011;32620;51.704;7.822;2023-08-31T12:19:02;4.57;;;2.53;;
46415;SDS011;32620;51.704;7.822;2023-08-31T12:21:30;3.88;;;2.53;;
46415;SDS011;32620;51.704;7.822;2023-08-31T12:23:59;3.90;;;2.78;;
46415;SDS011;32620;51.704;7.822;2023-08-31T12:26:25;5.05;;;2.53;;
46415;SDS011;32620;51.704;7.822;2023-08-31T12:28:51;7.28;;;2.63;;
46415;SDS011;32620;51.704;7.822;2023-08-31T12:31:17;6.78;;;2.88;;
46415;SDS011;32620;51.704;7.822;2023-08-31T12:33:42;5.40;;;2.72;;
46415;SDS011;32620;51.704;7.822;2023-08-31T12:36:08;5.78;;;2.75;;
46415;SDS011;32620;51.704;7.822;2023-08-31T12:38:34;5.32;;;2.53;;
46415;SDS011;32620;51.704;7.822;2023-08-31T12:40:59;9.80;;;3.10;;
46415;SDS011;32620;51.704;7.822;2023-08-31T12:43:27;7.68;;;3.30;;
46415;SDS011;32620;51.704;7.822;2023-08-31T12:45:54;9.10;;;3.08;;
46415;SDS011;32620;51.704;7.822;2023-08-31T12:48:20;4.40;;;2.70;;
46415;SDS011;32620;51.704;7.822;2023-08-31T12:50:46;7.88;;;3.10;;
46415;SDS011;32620;51.704;7.822;2023-08-31T12:53:13;4.43;;;2.90;;
46415;SDS011;32620;51.704;7.822;2023-08-31T12:55:39;4.30;;;2.58;;
46415;SDS011;32620;51.704;7.822;2023-08-31T12:58:04;8.23;;;3.40;;
46415;SDS011;32620;51.704;7.822;2023-08-31T13:00:30;7.90;;;3.35;;
46415;SDS011;32620;51.704;7.822;2023-08-31T13:02:56;10.65;;;3.30;;
46415;SDS011;32620;51.704;7.822;2023-08-31T13:05:21;6.30;;;3.08;;
46415;SDS011;32620;51.704;7.822;2023-08-31T13:07:47;5.35;;;3.05;;
46415;SDS011;32620;51.704;7.822;2023-08-31T13:10:13;8.25;;;3.80;;
46415;SDS011;32620;51.704;7.822;2023-08-31T13:12:38;7.25;;;3.72;;
46415;SDS011;32620;51.704;7.822;2023-08-31T13:15:04;6.32;;;2.95;;
46415;SDS011;32620;51.704;7.822;2023-08-31T13:17:32;7.97;;;3.90;;
46415;SDS011;32620;51.704;7.822;2023-08-31T13:19:58;7.18;;;3.00;;
46415;SDS011;32620;51.704;7.822;2023-08-31T13:22:24;7.03;;;3.40;;
46415;SDS011;32620;51.704;7.822;2023-08-31T13:24:51;6.65;;;3.20;;
46415;SDS011;32620;51.704;7.822;2023-08-31T13:27:16;6.72;;;3.50;;
46415;SDS011;32620;51.704;7.822;2023-08-31T13:29:43;5.22;;;3.10;;
46415;SDS011;32620;51.704;7.822;2023-08-31T13:32:09;5.43;;;3.30;;
46415;SDS011;32620;51.704;7.822;2023-08-31T13:34:34;7.78;;;3.00;;
46415;SDS011;32620;51.704;7.822;2023-08-31T13:37:01;6.80;;;2.95;;
46415;SDS011;32620;51.704;7.822;2023-08-31T13:39:27;10.73;;;3.40;;
46415;SDS011;32620;51.704;7.822;2023-08-31T13:41:53;7.88;;;2.70;;
46415;SDS011;32620;51.704;7.822;2023-08-31T13:44:19;7.43;;;3.13;;
46415;SDS011;32620;51.704;7.822;2023-08-31T13:46:45;4.03;;;2.42;;
46415;SDS011;32620;51.704;7.822;2023-08-31T13:49:11;7.57;;;2.80;;
46415;SDS011;32620;51.704;7.822;2023-08-31T13:51:38;6.03;;;2.65;;
46415;SDS011;32620;51.704;7.822;2023-08-31T13:54:04;5.47;;;2.80;;
46415;SDS011;32620;51.704;7.822;2023-08-31T13:56:30;6.97;;;2.53;;
46415;SDS011;32620;51.704;7.822;2023-08-31T13:58:56;4.35;;;2.70;;
46415;SDS011;32620;51.704;7.822;2023-08-31T14:01:22;4.95;;;2.45;;
46415;SDS011;32620;51.704;7.822;2023-08-31T14:03:47;5.18;;;2.40;;
46415;SDS011;32620;51.704;7.822;2023-08-31T14:06:13;4.78;;;2.67;;
46415;SDS011;32620;51.704;7.822;2023-08-31T14:08:39;4.22;;;3.05;;
46415;SDS011;32620;51.704;7.822;2023-08-31T14:11:05;7.35;;;3.53;;
46415;SDS011;32620;51.704;7.822;2023-08-31T14:13:31;6.40;;;3.85;;
46415;SDS011;32620;51.704;7.822;2023-08-31T14:15:57;4.03;;;3.20;;
46415;SDS011;32620;51.704;7.822;2023-08-31T14:18:23;7.25;;;3.90;;
46415;SDS011;32620;51.704;7.822;2023-08-31T14:20:50;4.80;;;3.17;;
46415;SDS011;32620;51.704;7.822;2023-08-31T14:23:16;6.95;;;3.28;;
46415;SDS011;32620;51.704;7.822;2023-08-31T14:25:42;5.05;;;3.30;;
46415;SDS011;32620;51.704;7.822;2023-08-31T14:28:07;7.00;;;3.35;;
46415;SDS011;32620;51.704;7.822;2023-08-31T14:30:35;5.90;;;3.38;;
46415;SDS011;32620;51.704;7.822;2023-08-31T14:33:01;6.35;;;3.72;;
46415;SDS011;32620;51.704;7.822;2023-08-31T14:35:27;4.00;;;3.50;;
46415;SDS011;32620;51.704;7.822;2023-08-31T14:37:53;6.20;;;3.90;;
46415;SDS011;32620;51.704;7.822;2023-08-31T14:40:19;6.32;;;4.25;;
46415;SDS011;32620;51.704;7.822;2023-08-31T14:42:44;6.43;;;4.00;;
46415;SDS011;32620;51.704;7.822;2023-08-31T14:45:10;5.13;;;3.97;;
46415;SDS011;32620;51.704;7.822;2023-08-31T14:47:36;6.43;;;3.95;;
46415;SDS011;32620;51.704;7.822;2023-08-31T14:50:01;6.22;;;4.10;;
46415;SDS011;32620;51.704;7.822;2023-08-31T14:52:29;6.57;;;3.83;;